sensor_id;sensor_type;location;lat;lon;timestamp;pressure;altitude;pressure_sealevel;temperature;humidity
76156;BME280;64906;51.290;7.348;2023-08-07T00:02:01;98221.75;;;19.94;59.92
76156;BME280;64906;51.290;7.348;2023-08-07T00:04:26;98223.34;;;19.95;59.66
76156;BME280;64906;51.290;7.348;2023-08-07T00:06:52;98222.88;;;19.93;59.63
76156;BME280;64906;51.290;7.348;2023-08-07T00:09:17;98230.19;;;19.98;59.38
76156;BME280;64906;51.290;7.348;2023-08-07T00:11:42;98221.66;;;19.99;59.50
76156;BME280;64906;51.290;7.348;2023-08-07T00:14:08;98223.88;;;19.97;59.45
76156;BME280;64906;51.290;7.348;2023-08-07T00:16:33;98232.59;;;19.99;59.82
76156;BME280;64906;51.290;7.348;2023-08-07T00:18:58;98227.13;;;19.99;59.57
76156;BME280;64906;51.290;7.348;2023-08-07T00:21:24;98233.53;;;19.95;59.79
76156;BME280;64906;51.290;7.348;2023-08-07T00:23:49;98226.91;;;19.96;59.61
76156;BME280;64906;51.290;7.348;2023-08-07T00:26:15;98229.88;;;19.99;59.25
76156;BME280;64906;51.290;7.348;2023-08-07T00:28:41;98225.22;;;20.00;59.42
76156;BME280;64906;51.290;7.348;2023-08-07T00:31:06;98233.53;;;19.95;59.71
76156;BME280;64906;51.290;7.348;2023-08-07T00:33:31;98232.09;;;19.97;59.69
76156;BME280;64906;51.290;7.348;2023-08-07T00:35:56;98248.31;;;19.94;59.47
76156;BME280;64906;51.290;7.348;2023-08-07T00:38:22;98227.53;;;19.93;59.92
76156;BME280;64906;51.290;7.348;2023-08-07T00:40:48;98223.06;;;19.97;59.32
76156;BME280;64906;51.290;7.348;2023-08-07T00:43:13;98238.38;;;19.98;59.42
76156;BME280;64906;51.290;7.348;2023-08-07T00:45:43;98225.78;;;19.97;59.61
76156;BME280;64906;51.290;7.348;2023-08-07T00:48:10;98244.25;;;19.91;59.45
76156;BME280;64906;51.290;7.348;2023-08-07T00:50:36;98236.56;;;19.93;59.61
76156;BME280;64906;51.290;7.348;2023-08-07T00:53:02;98236.56;;;19.93;59.64
76156;BME280;64906;51.290;7.348;2023-08-07T00:55:28;98241.22;;;19.93;59.67
76156;BME280;64906;51.290;7.348;2023-08-07T00:57:54;98234.91;;;19.92;59.84
76156;BME280;64906;51.290;7.348;2023-08-07T01:00:19;98245.88;;;19.92;59.80
76156;BME280;64906;51.290;7.348;2023-08-07T01:02:46;98242.03;;;19.93;59.44
76156;BME280;64906;51.290;7.348;2023-08-07T01:05:14;98250.25;;;19.93;59.61
76156;BME280;64906;51.290;7.348;2023-08-07T01:07:39;98251.06;;;19.94;59.64
76156;BME280;64906;51.290;7.348;2023-08-07T01:10:05;98250.25;;;19.93;59.75
76156;BME280;64906;51.290;7.348;2023-08-07T01:12:36;98261.72;;;19.95;59.20
76156;BME280;64906;51.290;7.348;2023-08-07T01:15:12;98260.09;;;19.94;59.27
76156;BME280;64906;51.290;7.348;2023-08-07T01:17:41;98260.69;;;19.91;59.34
76156;BME280;64906;51.290;7.348;2023-08-07T01:20:08;98254.09;;;19.92;59.23
76156;BME280;64906;51.290;7.348;2023-08-07T01:22:34;98255.44;;;19.95;59.33
76156;BME280;64906;51.290;7.348;2023-08-07T01:24:59;98260.41;;;19.93;59.56
76156;BME280;64906;51.290;7.348;2023-08-07T01:27:55;98266.78;;;19.88;59.20
76156;BME280;64906;51.290;7.348;2023-08-07T01:30:36;98253.56;;;19.90;59.46
76156;BME280;64906;51.290;7.348;2023-08-07T01:33:13;98256.31;;;19.90;59.39
76156;BME280;64906;51.290;7.348;2023-08-07T01:35:44;98257.44;;;19.89;59.33
76156;BME280;64906;51.290;7.348;2023-08-07T01:38:12;98261.00;;;19.90;59.18
76156;BME280;64906;51.290;7.348;2023-08-07T01:40:39;98261.22;;;19.93;59.22
76156;BME280;64906;51.290;7.348;2023-08-07T01:43:05;98274.09;;;19.93;59.13
76156;BME280;64906;51.290;7.348;2023-08-07T01:45:31;98263.44;;;19.91;59.25
76156;BME280;64906;51.290;7.348;2023-08-07T01:47:56;98272.44;;;19.92;59.12
76156;BME280;64906;51.290;7.348;2023-08-07T01:50:22;98259.06;;;19.90;59.38
76156;BME280;64906;51.290;7.348;2023-08-07T01:52:48;98269.22;;;19.90;59.19
76156;BME280;64906;51.290;7.348;2023-08-07T01:55:17;98271.34;;;19.93;58.98
76156;BME280;64906;51.290;7.348;2023-08-07T01:57:43;98271.66;;;19.91;59.06
76156;BME280;64906;51.290;7.348;2023-08-07T02:00:09;98261.81;;;19.90;59.27
76156;BME280;64906;51.290;7.348;2023-08-07T02:02:35;98269.44;;;19.93;59.31
76156;BME280;64906;51.290;7.348;2023-08-07T02:05:01;98265.34;;;19.91;59.34
76156;BME280;64906;51.290;7.348;2023-08-07T02:07:26;98268.72;;;19.88;59.43
76156;BME280;64906;51.290;7.348;2023-08-07T02:09:51;98268.41;;;19.89;59.05
76156;BME280;64906;51.290;7.348;2023-08-07T02:12:17;98273.28;;;19.92;59.12
76156;BME280;64906;51.290;7.348;2023-08-07T02:14:42;98272.19;;;19.93;58.90
76156;BME280;64906;51.290;7.348;2023-08-07T02:17:07;98273.06;;;19.89;58.93
76156;BME280;64906;51.290;7.348;2023-08-07T02:19:33;98271.44;;;19.88;59.33
76156;BME280;64906;51.290;7.348;2023-08-07T02:21:58;98270.31;;;19.89;59.44
76156;BME280;64906;51.290;7.348;2023-08-07T02:24:23;98284.03;;;19.89;59.21
76156;BME280;64906;51.290;7.348;2023-08-07T02:26:48;98279.66;;;19.88;59.32
76156;BME280;64906;51.290;7.348;2023-08-07T02:29:14;98277.22;;;19.86;59.11
76156;BME280;64906;51.290;7.348;2023-08-07T02:31:39;98277.75;;;19.88;59.20
76156;BME280;64906;51.290;7.348;2023-08-07T02:34:04;98282.41;;;19.88;59.30
76156;BME280;64906;51.290;7.348;2023-08-07T02:36:30;98283.22;;;19.88;59.26
76156;BME280;64906;51.290;7.348;2023-08-07T02:38:55;98276.63;;;19.89;58.95
76156;BME280;64906;51.290;7.348;2023-08-07T02:41:20;98286.44;;;19.90;58.88
76156;BME280;64906;51.290;7.348;2023-08-07T02:43:46;98284.84;;;19.89;59.07
76156;BME280;64906;51.290;7.348;2023-08-07T02:46:11;98291.13;;;19.90;59.07
76156;BME280;64906;51.290;7.348;2023-08-07T02:48:36;98280.97;;;19.90;59.31
76156;BME280;64906;51.290;7.348;2023-08-07T02:51:02;98270.94;;;19.86;59.37
76156;BME280;64906;51.290;7.348;2023-08-07T02:53:28;98272.84;;;19.85;58.94
76156;BME280;64906;51.290;7.348;2023-08-07T02:55:53;98281.88;;;19.86;59.35
76156;BME280;64906;51.290;7.348;2023-08-07T02:58:18;98292.53;;;19.87;59.09
76156;BME280;64906;51.290;7.348;2023-08-07T03:00:44;98281.88;;;19.86;59.19
76156;BME280;64906;51.290;7.348;2023-08-07T03:03:09;98283.22;;;19.88;59.22
76156;BME280;64906;51.290;7.348;2023-08-07T03:05:34;98283.53;;;19.87;59.05
76156;BME280;64906;51.290;7.348;2023-08-07T03:07:59;98290.41;;;19.84;59.12
76156;BME280;64906;51.290;7.348;2023-08-07T03:10:25;98288.69;;;19.88;59.05
76156;BME280;64906;51.290;7.348;2023-08-07T03:12:50;98285.13;;;19.88;58.92
76156;BME280;64906;51.290;7.348;2023-08-07T03:15:15;98289.59;;;19.84;58.98
76156;BME280;64906;51.290;7.348;2023-08-07T03:17:40;98290.94;;;19.86;59.17
76156;BME280;64906;51.290;7.348;2023-08-07T03:20:06;98293.97;;;19.85;58.89
76156;BME280;64906;51.290;7.348;2023-08-07T03:22:31;98287.66;;;19.84;59.33
76156;BME280;64906;51.290;7.348;2023-08-07T03:24:57;98292.09;;;19.80;59.11
76156;BME280;64906;51.290;7.348;2023-08-07T03:27:22;98289.88;;;19.82;59.44
76156;BME280;64906;51.290;7.348;2023-08-07T03:29:48;98289.59;;;19.84;59.18
76156;BME280;64906;51.290;7.348;2023-08-07T03:32:13;98292.91;;;19.81;59.32
76156;BME280;64906;51.290;7.348;2023-08-07T03:34:38;98293.75;;;19.81;59.14
76156;BME280;64906;51.290;7.348;2023-08-07T03:37:03;98291.53;;;19.83;59.18
76156;BME280;64906;51.290;7.348;2023-08-07T03:39:29;98289.88;;;19.82;59.09
76156;BME280;64906;51.290;7.348;2023-08-07T03:41:54;98299.13;;;19.86;59.32
76156;BME280;64906;51.290;7.348;2023-08-07T03:44:19;98296.72;;;19.85;58.82
76156;BME280;64906;51.290;7.348;2023-08-07T03:46:45;98300.53;;;19.84;59.04
76156;BME280;64906;51.290;7.348;2023-08-07T03:49:10;98309.56;;;19.84;59.12
76156;BME280;64906;51.290;7.348;2023-08-07T03:51:36;98312.63;;;19.83;58.85
76156;BME280;64906;51.290;7.348;2023-08-07T03:54:01;98300.31;;;19.80;58.99
76156;BME280;64906;51.290;7.348;2023-08-07T03:56:26;98306.91;;;19.79;59.07
76156;BME280;64906;51.290;7.348;2023-08-07T03:58:53;98306.31;;;19.82;59.10
76156;BME280;64906;51.290;7.348;2023-08-07T04:01:18;98298.09;;;19.82;59.01
76156;BME280;64906;51.290;7.348;2023-08-07T04:03:46;98305.78;;;19.80;58.87
76156;BME280;64906;51.290;7.348;2023-08-07T04:06:11;98310.19;;;19.81;59.17
76156;BME280;64906;51.290;7.348;2023-08-07T04:08:41;98303.88;;;19.81;58.94
76156;BME280;64906;51.290;7.348;2023-08-07T04:11:07;98308.25;;;19.82;58.90
76156;BME280;64906;51.290;7.348;2023-08-07T04:13:33;98318.91;;;19.83;58.90
76156;BME280;64906;51.290;7.348;2023-08-07T04:15:58;98310.19;;;19.81;59.26
76156;BME280;64906;51.290;7.348;2023-08-07T04:18:25;98309.34;;;19.81;58.96
76156;BME280;64906;51.290;7.348;2023-08-07T04:20:55;98314.00;;;19.80;59.13
76156;BME280;64906;51.290;7.348;2023-08-07T04:23:20;98315.66;;;19.81;58.74
76156;BME280;64906;51.290;7.348;2023-08-07T04:25:50;98309.88;;;19.83;58.69
76156;BME280;64906;51.290;7.348;2023-08-07T04:28:16;98315.44;;;19.78;59.09
76156;BME280;64906;51.290;7.348;2023-08-07T04:30:43;98315.13;;;19.79;58.95
76156;BME280;64906;51.290;7.348;2023-08-07T04:33:08;98318.47;;;19.76;58.87
76156;BME280;64906;51.290;7.348;2023-08-07T04:35:34;98324.25;;;19.75;59.16
76156;BME280;64906;51.290;7.348;2023-08-07T04:38:00;98313.00;;;19.76;59.20
76156;BME280;64906;51.290;7.348;2023-08-07T04:40:26;98322.53;;;19.79;58.88
76156;BME280;64906;51.290;7.348;2023-08-07T04:42:51;98331.06;;;19.77;59.19
76156;BME280;64906;51.290;7.348;2023-08-07T04:45:17;98332.69;;;19.78;59.11
76156;BME280;64906;51.290;7.348;2023-08-07T04:47:42;98333.00;;;19.77;58.89
76156;BME280;64906;51.290;7.348;2023-08-07T04:50:08;98334.59;;;19.78;58.73
76156;BME280;64906;51.290;7.348;2023-08-07T04:52:34;98334.91;;;19.76;59.16
76156;BME280;64906;51.290;7.348;2023-08-07T04:54:59;98332.69;;;19.78;58.91
76156;BME280;64906;51.290;7.348;2023-08-07T04:57:25;98329.97;;;19.78;58.87
76156;BME280;64906;51.290;7.348;2023-08-07T04:59:51;98334.09;;;19.76;59.07
76156;BME280;64906;51.290;7.348;2023-08-07T05:02:16;98327.81;;;19.75;59.07
76156;BME280;64906;51.290;7.348;2023-08-07T05:04:42;98343.44;;;19.75;58.90
76156;BME280;64906;51.290;7.348;2023-08-07T05:07:08;98335.50;;;19.73;59.20
76156;BME280;64906;51.290;7.348;2023-08-07T05:09:33;98334.09;;;19.76;58.81
76156;BME280;64906;51.290;7.348;2023-08-07T05:11:58;98343.13;;;19.76;58.65
76156;BME280;64906;51.290;7.348;2023-08-07T05:14:23;98325.09;;;19.75;58.89
76156;BME280;64906;51.290;7.348;2023-08-07T05:16:49;98341.50;;;19.75;58.74
76156;BME280;64906;51.290;7.348;2023-08-07T05:19:14;98330.25;;;19.77;59.15
76156;BME280;64906;51.290;7.348;2023-08-07T05:21:40;98328.63;;;19.76;58.68
76156;BME280;64906;51.290;7.348;2023-08-07T05:24:05;98337.13;;;19.74;58.92
76156;BME280;64906;51.290;7.348;2023-08-07T05:26:30;98349.44;;;19.77;58.86
76156;BME280;64906;51.290;7.348;2023-08-07T05:28:56;98334.09;;;19.76;59.06
76156;BME280;64906;51.290;7.348;2023-08-07T05:31:24;98338.19;;;19.78;58.90
76156;BME280;64906;51.290;7.348;2023-08-07T05:33:50;98340.38;;;19.76;58.97
76156;BME280;64906;51.290;7.348;2023-08-07T05:36:16;98347.00;;;19.75;59.06
76156;BME280;64906;51.290;7.348;2023-08-07T05:38:41;98338.25;;;19.73;58.73
76156;BME280;64906;51.290;7.348;2023-08-07T05:41:08;98338.47;;;19.77;58.69
76156;BME280;64906;51.290;7.348;2023-08-07T05:43:34;98336.31;;;19.74;58.94
76156;BME280;64906;51.290;7.348;2023-08-07T05:45:59;98342.09;;;19.72;59.16
76156;BME280;64906;51.290;7.348;2023-08-07T05:48:25;98338.78;;;19.75;58.88
76156;BME280;64906;51.290;7.348;2023-08-07T05:50:51;98339.88;;;19.74;58.89
76156;BME280;64906;51.290;7.348;2023-08-07T05:53:17;98337.66;;;19.76;58.68
76156;BME280;64906;51.290;7.348;2023-08-07T05:55:42;98348.69;;;19.71;59.01
76156;BME280;64906;51.290;7.348;2023-08-07T05:58:07;98352.75;;;19.74;58.59
76156;BME280;64906;51.290;7.348;2023-08-07T06:00:33;98349.44;;;19.77;58.39
76156;BME280;64906;51.290;7.348;2023-08-07T06:02:58;98356.81;;;19.76;58.49
76156;BME280;64906;51.290;7.348;2023-08-07T06:05:24;98350.81;;;19.74;58.68
76156;BME280;64906;51.290;7.348;2023-08-07T06:07:49;98355.78;;;19.72;59.00
76156;BME280;64906;51.290;7.348;2023-08-07T06:10:15;98354.75;;;19.68;58.95
76156;BME280;64906;51.290;7.348;2023-08-07T06:12:40;98351.19;;;19.68;58.73
76156;BME280;64906;51.290;7.348;2023-08-07T06:15:06;98371.19;;;19.68;59.05
76156;BME280;64906;51.290;7.348;2023-08-07T06:17:31;98357.19;;;19.70;58.72
76156;BME280;64906;51.290;7.348;2023-08-07T06:19:56;98361.56;;;19.71;58.95
76156;BME280;64906;51.290;7.348;2023-08-07T06:22:22;98364.28;;;19.71;58.94
76156;BME280;64906;51.290;7.348;2023-08-07T06:24:47;98362.44;;;19.66;58.75
76156;BME280;64906;51.290;7.348;2023-08-07T06:27:14;98365.19;;;19.66;59.17
76156;BME280;64906;51.290;7.348;2023-08-07T06:29:39;98365.72;;;19.68;58.60
76156;BME280;64906;51.290;7.348;2023-08-07T06:32:05;98366.72;;;19.72;58.97
76156;BME280;64906;51.290;7.348;2023-08-07T06:34:31;98370.59;;;19.71;59.01
76156;BME280;64906;51.290;7.348;2023-08-07T06:36:56;98376.06;;;19.71;59.05
76156;BME280;64906;51.290;7.348;2023-08-07T06:39:21;98374.22;;;19.67;58.99
76156;BME280;64906;51.290;7.348;2023-08-07T06:41:47;98381.84;;;19.70;58.60
76156;BME280;64906;51.290;7.348;2023-08-07T06:44:12;98378.28;;;19.69;58.88
76156;BME280;64906;51.290;7.348;2023-08-07T06:46:37;98384.28;;;19.71;58.54
76156;BME280;64906;51.290;7.348;2023-08-07T06:49:03;98387.63;;;19.68;58.46
76156;BME280;64906;51.290;7.348;2023-08-07T06:51:28;98396.75;;;19.64;59.17
76156;BME280;64906;51.290;7.348;2023-08-07T06:53:53;98391.25;;;19.64;58.68
76156;BME280;64906;51.290;7.348;2023-08-07T06:56:19;98400.50;;;19.68;58.86
76156;BME280;64906;51.290;7.348;2023-08-07T06:58:44;98402.41;;;19.67;58.52
76156;BME280;64906;51.290;7.348;2023-08-07T07:01:09;98405.38;;;19.71;58.57
76156;BME280;64906;51.290;7.348;2023-08-07T07:03:35;98413.22;;;19.77;58.32
76156;BME280;64906;51.290;7.348;2023-08-07T07:06:00;98405.16;;;19.67;58.69
76156;BME280;64906;51.290;7.348;2023-08-07T07:08:25;98414.72;;;19.70;58.83
76156;BME280;64906;51.290;7.348;2023-08-07T07:10:51;98415.47;;;19.75;58.87
76156;BME280;64906;51.290;7.348;2023-08-07T07:13:16;98409.22;;;19.70;58.94
76156;BME280;64906;51.290;7.348;2023-08-07T07:15:41;98427.16;;;19.62;59.06
76156;BME280;64906;51.290;7.348;2023-08-07T07:18:06;98412.56;;;19.67;59.04
76156;BME280;64906;51.290;7.348;2023-08-07T07:20:33;98413.88;;;19.69;58.99
76156;BME280;64906;51.290;7.348;2023-08-07T07:22:58;98420.41;;;19.73;58.77
76156;BME280;64906;51.290;7.348;2023-08-07T07:25:23;98430.03;;;19.71;58.71
76156;BME280;64906;51.290;7.348;2023-08-07T07:27:49;98429.78;;;19.67;59.17
76156;BME280;64906;51.290;7.348;2023-08-07T07:30:14;98434.78;;;19.65;59.27
76156;BME280;64906;51.290;7.348;2023-08-07T07:32:39;98441.03;;;19.66;58.82
76156;BME280;64906;51.290;7.348;2023-08-07T07:35:05;98440.84;;;19.62;59.31
76156;BME280;64906;51.290;7.348;2023-08-07T07:37:31;98441.34;;;19.64;58.79
76156;BME280;64906;51.290;7.348;2023-08-07T07:39:56;98446.53;;;19.66;58.78
76156;BME280;64906;51.290;7.348;2023-08-07T07:42:22;98450.69;;;19.63;58.88
76156;BME280;64906;51.290;7.348;2023-08-07T07:44:47;98462.94;;;19.66;59.07
76156;BME280;64906;51.290;7.348;2023-08-07T07:47:13;98465.69;;;19.66;59.21
76156;BME280;64906;51.290;7.348;2023-08-07T07:49:38;98467.09;;;19.63;59.10
76156;BME280;64906;51.290;7.348;2023-08-07T07:52:03;98459.50;;;19.60;59.10
76156;BME280;64906;51.290;7.348;2023-08-07T07:54:29;98463.25;;;19.64;59.11
76156;BME280;64906;51.290;7.348;2023-08-07T07:56:55;98460.00;;;19.62;59.22
76156;BME280;64906;51.290;7.348;2023-08-07T07:59:20;98468.44;;;19.66;59.20
76156;BME280;64906;51.290;7.348;2023-08-07T08:01:45;98460.81;;;19.63;59.11
76156;BME280;64906;51.290;7.348;2023-08-07T08:04:11;98469.25;;;19.66;59.16
76156;BME280;64906;51.290;7.348;2023-08-07T08:06:36;98476.44;;;19.62;59.04
76156;BME280;64906;51.290;7.348;2023-08-07T08:09:02;98478.88;;;19.64;59.05
76156;BME280;64906;51.290;7.348;2023-08-07T08:11:30;98484.56;;;19.67;59.33
76156;BME280;64906;51.290;7.348;2023-08-07T08:13:55;98486.81;;;19.65;58.96
76156;BME280;64906;51.290;7.348;2023-08-07T08:16:20;98481.56;;;19.69;59.11
76156;BME280;64906;51.290;7.348;2023-08-07T08:18:45;98495.81;;;19.66;58.85
76156;BME280;64906;51.290;7.348;2023-08-07T08:21:11;98493.38;;;19.64;59.17
76156;BME280;64906;51.290;7.348;2023-08-07T08:23:36;98499.06;;;19.68;58.93
76156;BME280;64906;51.290;7.348;2023-08-07T08:26:01;98509.22;;;19.67;59.15
76156;BME280;64906;51.290;7.348;2023-08-07T08:28:27;98508.72;;;19.65;59.06
76156;BME280;64906;51.290;7.348;2023-08-07T08:30:52;98510.31;;;19.66;59.20
76156;BME280;64906;51.290;7.348;2023-08-07T08:33:17;98519.66;;;19.65;58.76
76156;BME280;64906;51.290;7.348;2023-08-07T08:35:43;98510.84;;;19.68;58.78
76156;BME280;64906;51.290;7.348;2023-08-07T08:38:08;98520.47;;;19.66;59.02
76156;BME280;64906;51.290;7.348;2023-08-07T08:40:35;98523.72;;;19.68;59.09
76156;BME280;64906;51.290;7.348;2023-08-07T08:43:04;98524.56;;;19.68;59.12
76156;BME280;64906;51.290;7.348;2023-08-07T08:45:30;98531.66;;;19.69;59.36
76156;BME280;64906;51.290;7.348;2023-08-07T08:48:02;98540.38;;;19.71;59.38
76156;BME280;64906;51.290;7.348;2023-08-07T08:50:29;98549.94;;;19.74;59.10
76156;BME280;64906;51.290;7.348;2023-08-07T08:52:55;98540.69;;;19.70;58.71
76156;BME280;64906;51.290;7.348;2023-08-07T08:55:21;98552.97;;;19.72;59.03
76156;BME280;64906;51.290;7.348;2023-08-07T08:57:47;98546.41;;;19.73;59.19
76156;BME280;64906;51.290;7.348;2023-08-07T09:00:14;98547.50;;;19.72;58.99
76156;BME280;64906;51.290;7.348;2023-08-07T09:02:44;98551.56;;;19.75;59.17
76156;BME280;64906;51.290;7.348;2023-08-07T09:05:09;98554.09;;;19.71;58.99
76156;BME280;64906;51.290;7.348;2023-08-07T09:07:35;98567.19;;;19.74;59.29
76156;BME280;64906;51.290;7.348;2023-08-07T09:10:03;98572.31;;;19.81;59.28
76156;BME280;64906;51.290;7.348;2023-08-07T09:12:31;98576.16;;;19.80;58.96
76156;BME280;64906;51.290;7.348;2023-08-07T09:14:57;98575.88;;;19.81;58.83
76156;BME280;64906;51.290;7.348;2023-08-07T09:17:31;98572.00;;;19.82;59.34
76156;BME280;64906;51.290;7.348;2023-08-07T09:19:58;98579.06;;;19.88;58.98
76156;BME280;64906;51.290;7.348;2023-08-07T09:22:24;98580.69;;;19.89;58.70
76156;BME280;64906;51.290;7.348;2023-08-07T09:24:49;98582.31;;;19.90;58.65
76156;BME280;64906;51.290;7.348;2023-08-07T09:27:15;98580.09;;;19.92;58.93
76156;BME280;64906;51.290;7.348;2023-08-07T09:29:40;98584.84;;;19.87;59.24
76156;BME280;64906;51.290;7.348;2023-08-07T09:32:07;98590.66;;;19.80;59.43
76156;BME280;64906;51.290;7.348;2023-08-07T09:34:33;98601.84;;;19.84;59.57
76156;BME280;64906;51.290;7.348;2023-08-07T09:36:58;98598.75;;;19.90;58.79
76156;BME280;64906;51.290;7.348;2023-08-07T09:39:24;98597.38;;;19.93;59.03
76156;BME280;64906;51.290;7.348;2023-08-07T09:41:53;98605.88;;;19.91;59.22
76156;BME280;64906;51.290;7.348;2023-08-07T09:44:19;98609.66;;;19.95;59.13
76156;BME280;64906;51.290;7.348;2023-08-07T09:46:44;98605.00;;;19.96;59.24
76156;BME280;64906;51.290;7.348;2023-08-07T09:49:10;98607.44;;;19.97;59.04
76156;BME280;64906;51.290;7.348;2023-08-07T09:51:43;98621.13;;;19.97;59.37
76156;BME280;64906;51.290;7.348;2023-08-07T09:54:10;98612.97;;;19.92;59.61
76156;BME280;64906;51.290;7.348;2023-08-07T09:56:35;98609.16;;;19.93;59.45
76156;BME280;64906;51.290;7.348;2023-08-07T09:59:01;98616.78;;;19.96;59.30
76156;BME280;64906;51.290;7.348;2023-08-07T10:01:26;98616.19;;;19.99;59.46
76156;BME280;64906;51.290;7.348;2023-08-07T10:03:52;98617.88;;;19.95;59.34
76156;BME280;64906;51.290;7.348;2023-08-07T10:06:19;98615.78;;;19.87;59.46
76156;BME280;64906;51.290;7.348;2023-08-07T10:08:45;98616.59;;;19.88;59.54
76156;BME280;64906;51.290;7.348;2023-08-07T10:11:11;98627.03;;;19.86;59.54
76156;BME280;64906;51.290;7.348;2023-08-07T10:13:37;98639.84;;;19.90;59.63
76156;BME280;64906;51.290;7.348;2023-08-07T10:16:03;98640.09;;;19.94;59.29
76156;BME280;64906;51.290;7.348;2023-08-07T10:18:29;98637.28;;;19.99;59.15
76156;BME280;64906;51.290;7.348;2023-08-07T10:20:55;98629.66;;;19.96;59.38
76156;BME280;64906;51.290;7.348;2023-08-07T10:23:23;98633.81;;;19.93;59.33
76156;BME280;64906;51.290;7.348;2023-08-07T10:25:49;98640.38;;;19.92;59.53
76156;BME280;64906;51.290;7.348;2023-08-07T10:28:18;98645.81;;;19.97;59.55
76156;BME280;64906;51.290;7.348;2023-08-07T10:30:44;98646.38;;;19.94;59.04
76156;BME280;64906;51.290;7.348;2023-08-07T10:33:12;98653.00;;;19.93;59.58
76156;BME280;64906;51.290;7.348;2023-08-07T10:35:44;98654.38;;;19.91;59.46
76156;BME280;64906;51.290;7.348;2023-08-07T10:38:10;98663.34;;;19.96;59.47
76156;BME280;64906;51.290;7.348;2023-08-07T10:41:09;98664.34;;;20.05;59.29
76156;BME280;64906;51.290;7.348;2023-08-07T10:43:39;98651.97;;;20.08;58.95
76156;BME280;64906;51.290;7.348;2023-08-07T10:46:08;98660.03;;;19.99;59.14
76156;BME280;64906;51.290;7.348;2023-08-07T10:48:41;98661.59;;;20.05;58.78
76156;BME280;64906;51.290;7.348;2023-08-07T10:51:07;98662.19;;;20.02;58.95
76156;BME280;64906;51.290;7.348;2023-08-07T10:53:35;98664.28;;;20.11;58.61
76156;BME280;64906;51.290;7.348;2023-08-07T10:56:05;98660.94;;;20.14;58.50
76156;BME280;64906;51.290;7.348;2023-08-07T10:58:35;98667.59;;;20.08;59.13
76156;BME280;64906;51.290;7.348;2023-08-07T11:03:56;98673.16;;;20.02;58.96
76156;BME280;64906;51.290;7.348;2023-08-07T11:06:24;98657.53;;;20.03;59.41
76156;BME280;64906;51.290;7.348;2023-08-07T11:08:51;98659.38;;;20.08;59.54
76156;BME280;64906;51.290;7.348;2023-08-07T11:11:17;98652.03;;;20.03;60.09
76156;BME280;64906;51.290;7.348;2023-08-07T11:13:42;98661.06;;;20.03;60.04
76156;BME280;64906;51.290;7.348;2023-08-07T11:16:08;98656.41;;;20.04;59.73
76156;BME280;64906;51.290;7.348;2023-08-07T11:18:33;98663.84;;;19.98;60.17
76156;BME280;64906;51.290;7.348;2023-08-07T11:21:01;98668.91;;;19.91;60.59
76156;BME280;64906;51.290;7.348;2023-08-07T11:23:27;98667.78;;;19.92;60.38
76156;BME280;64906;51.290;7.348;2023-08-07T11:25:54;98679.56;;;19.93;60.86
76156;BME280;64906;51.290;7.348;2023-08-07T11:28:21;98694.34;;;19.92;60.33
76156;BME280;64906;51.290;7.348;2023-08-07T11:30:51;98699.03;;;19.91;60.61
76156;BME280;64906;51.290;7.348;2023-08-07T11:33:19;98692.72;;;19.91;60.19
76156;BME280;64906;51.290;7.348;2023-08-07T11:35:46;98700.94;;;19.91;60.23
76156;BME280;64906;51.290;7.348;2023-08-07T11:38:11;98704.50;;;19.91;60.19
76156;BME280;64906;51.290;7.348;2023-08-07T11:40:37;98695.41;;;19.96;59.84
76156;BME280;64906;51.290;7.348;2023-08-07T11:43:02;98697.31;;;19.95;59.99
76156;BME280;64906;51.290;7.348;2023-08-07T11:45:28;98693.22;;;19.98;60.01
76156;BME280;64906;51.290;7.348;2023-08-07T11:47:54;98691.34;;;19.93;60.35
76156;BME280;64906;51.290;7.348;2023-08-07T11:50:22;98692.66;;;19.96;60.01
76156;BME280;64906;51.290;7.348;2023-08-07T11:52:47;98685.22;;;20.01;59.99
76156;BME280;64906;51.290;7.348;2023-08-07T11:55:14;98680.84;;;20.00;60.24
76156;BME280;64906;51.290;7.348;2023-08-07T11:57:39;98685.78;;;19.98;60.46
76156;BME280;64906;51.290;7.348;2023-08-07T12:00:08;98676.72;;;20.03;59.98
76156;BME280;64906;51.290;7.348;2023-08-07T12:02:43;98672.25;;;20.07;59.97
76156;BME280;64906;51.290;7.348;2023-08-07T12:05:09;98673.63;;;20.10;59.65
76156;BME280;64906;51.290;7.348;2023-08-07T12:07:37;98677.50;;;20.03;60.05
76156;BME280;64906;51.290;7.348;2023-08-07T12:10:06;98687.13;;;20.01;59.94
76156;BME280;64906;51.290;7.348;2023-08-07T12:12:38;98690.69;;;20.01;60.44
76156;BME280;64906;51.290;7.348;2023-08-07T12:15:07;98689.63;;;19.97;60.14
76156;BME280;64906;51.290;7.348;2023-08-07T12:17:32;98706.97;;;19.93;60.10
76156;BME280;64906;51.290;7.348;2023-08-07T12:19:58;98698.44;;;19.94;60.56
76156;BME280;64906;51.290;7.348;2023-08-07T12:22:27;98708.81;;;19.97;60.83
76156;BME280;64906;51.290;7.348;2023-08-07T12:24:52;98712.69;;;19.96;60.31
76156;BME280;64906;51.290;7.348;2023-08-07T12:27:19;98709.94;;;19.96;60.35
76156;BME280;64906;51.290;7.348;2023-08-07T12:29:44;98701.13;;;19.99;60.70
76156;BME280;64906;51.290;7.348;2023-08-07T12:32:10;98696.69;;;20.03;60.50
76156;BME280;64906;51.290;7.348;2023-08-07T12:34:35;98695.84;;;20.08;59.71
76156;BME280;64906;51.290;7.348;2023-08-07T12:37:01;98694.13;;;20.12;59.48
76156;BME280;64906;51.290;7.348;2023-08-07T12:39:26;98698.28;;;20.10;59.51
76156;BME280;64906;51.290;7.348;2023-08-07T12:41:51;98702.63;;;20.16;59.19
76156;BME280;64906;51.290;7.348;2023-08-07T12:44:17;98712.47;;;20.17;58.92
76156;BME280;64906;51.290;7.348;2023-08-07T12:46:42;98698.75;;;20.17;59.01
76156;BME280;64906;51.290;7.348;2023-08-07T12:49:10;98704.75;;;20.19;58.84
76156;BME280;64906;51.290;7.348;2023-08-07T12:51:35;98701.78;;;20.15;58.82
76156;BME280;64906;51.290;7.348;2023-08-07T12:54:01;98706.47;;;20.15;59.22
76156;BME280;64906;51.290;7.348;2023-08-07T12:56:26;98717.97;;;20.12;58.80
76156;BME280;64906;51.290;7.348;2023-08-07T12:58:51;98713.00;;;20.19;58.37